Time;durP1;ratioP1;P1;durP2;ratioP2;P2;SDS_P1;SDS_P2;PMS_P1;PMS_P2;Temp;Humidity;BMP_temperature;BMP_pressure;BME280_temperature;BME280_humidity;BME280_pressure;Samples;Min_cycle;Max_cycle;Signal;HPM_P1;HPM_P2
2021/01/28 00:02:23;;;;;;;42.63;17.88;;;;;;;;;;5037125;28;20136;-91
2021/01/28 00:04:57;;;;;;;45.75;19.20;;;;;;;;;;5034417;28;20053;-92
2021/01/28 00:07:28;;;;;;;42.30;18.92;;;;;;;;;;5009479;28;20081;-91
2021/01/28 00:09:56;;;;;;;47.97;19.35;;;;;;;;;;5018334;28;20053;-91
2021/01/28 00:12:44;;;;;;;49.28;19.23;;;;;;;;;;5035523;28;20648;-91
2021/01/28 00:15:13;;;;;;;47.47;19.38;;;;;;;;;;5033996;28;20141;-91
2021/01/28 00:17:42;;;;;;;49.75;19.83;;;;;;;;;;5033703;28;20124;-91
2021/01/28 00:20:18;;;;;;;46.08;19.77;;;;;;;;;;5034598;28;20045;-92
2021/01/28 00:22:47;;;;;;;47.22;19.55;;;;;;;;;;5034657;28;20045;-92
2021/01/28 00:25:29;;;;;;;51.55;20.80;;;;;;;;;;5035800;28;20124;-92
2021/01/28 00:27:58;;;;;;;49.30;20.42;;;;;;;;;;5046406;28;20029;-92
2021/01/28 00:30:28;;;;;;;57.25;22.30;;;;;;;;;;5057582;28;20068;-92
2021/01/28 00:32:57;;;;;;;61.75;21.35;;;;;;;;;;5049564;28;20040;-92
2021/01/28 00:35:33;;;;;;;54.60;20.75;;;;;;;;;;5038696;28;20061;-92
2021/01/28 00:38:02;;;;;;;50.17;20.27;;;;;;;;;;5058744;28;20045;-92
2021/01/28 00:40:39;;;;;;;55.17;21.83;;;;;;;;;;5058877;28;20048;-92
2021/01/28 00:43:07;;;;;;;58.83;21.40;;;;;;;;;;5025869;28;20049;-92
2021/01/28 00:45:48;;;;;;;66.22;23.40;;;;;;;;;;5037145;28;20053;-92
2021/01/28 00:48:17;;;;;;;67.00;22.63;;;;;;;;;;5035828;28;20522;-92
2021/01/28 00:50:48;;;;;;;67.10;23.30;;;;;;;;;;5035468;28;20060;-92
2021/01/28 00:53:16;;;;;;;70.80;23.52;;;;;;;;;;5034013;28;20045;-92
2021/01/28 00:55:52;;;;;;;71.53;23.15;;;;;;;;;;5033614;28;20054;-91
2021/01/28 00:58:20;;;;;;;64.38;21.25;;;;;;;;;;5033870;28;20049;-92
2021/01/28 01:00:47;;;;;;;66.28;22.98;;;;;;;;;;5033496;28;20406;-91
2021/01/28 01:03:16;;;;;;;77.53;24.38;;;;;;;;;;5032934;28;20052;-90
2021/01/28 01:05:44;;;;;;;86.65;23.52;;;;;;;;;;5034014;28;20107;-91
2021/01/28 01:08:13;;;;;;;72.10;23.67;;;;;;;;;;5033258;28;20057;-91
2021/01/28 01:10:44;;;;;;;70.30;23.58;;;;;;;;;;5033369;28;20100;-91
2021/01/28 01:13:27;;;;;;;76.55;23.17;;;;;;;;;;5033522;28;20057;-92
2021/01/28 01:15:57;;;;;;;86.05;22.30;;;;;;;;;;5030020;28;20453;-91
2021/01/28 01:18:26;;;;;;;90.80;24.17;;;;;;;;;;5033461;28;20563;-92
2021/01/28 01:20:54;;;;;;;89.60;23.73;;;;;;;;;;5026771;28;20175;-91
2021/01/28 01:23:30;;;;;;;81.47;24.27;;;;;;;;;;5033112;28;20080;-91
2021/01/28 01:25:58;;;;;;;87.28;24.58;;;;;;;;;;5029283;28;20045;-91
2021/01/28 01:28:38;;;;;;;89.78;24.98;;;;;;;;;;5035870;28;20057;-91
2021/01/28 01:31:10;;;;;;;104.10;25.40;;;;;;;;;;5038016;28;20072;-91
2021/01/28 01:33:39;;;;;;;85.65;23.90;;;;;;;;;;5038127;28;20045;-91
2021/01/28 01:36:06;;;;;;;83.38;23.98;;;;;;;;;;5037144;28;20086;-90
2021/01/28 01:38:36;;;;;;;92.85;24.52;;;;;;;;;;5037778;28;20045;-92
2021/01/28 01:41:03;;;;;;;87.00;24.17;;;;;;;;;;5021327;28;20045;-91
2021/01/28 01:43:34;;;;;;;97.20;25.08;;;;;;;;;;5037543;28;20056;-91
2021/01/28 01:46:05;;;;;;;105.22;26.42;;;;;;;;;;5036576;28;20053;-90
2021/01/28 01:48:57;;;;;;;103.00;24.40;;;;;;;;;;5037469;28;20079;-91
2021/01/28 01:51:27;;;;;;;93.65;24.38;;;;;;;;;;5036872;28;20053;-91
2021/01/28 01:54:01;;;;;;;89.38;24.20;;;;;;;;;;5029297;28;20051;-92
2021/01/28 01:56:29;;;;;;;;;;;;;;;;;;5038754;28;20046;-92
2021/01/28 01:59:07;;;;;;;85.50;22.98;;;;;;;;;;5037982;28;20007;-91
2021/01/28 02:01:59;;;;;;;92.28;25.38;;;;;;;;;;5027943;28;20069;-91
2021/01/28 02:04:30;;;;;;;79.20;23.35;;;;;;;;;;5033177;28;20049;-91
2021/01/28 02:10:28;;;;;;;79.05;23.98;;;;;;;;;;5035063;28;20069;-90
2021/01/28 02:12:55;;;;;;;93.82;24.25;;;;;;;;;;5029126;28;20050;-91
2021/01/28 02:15:25;;;;;;;90.65;24.10;;;;;;;;;;5037195;28;20064;-92
2021/01/28 02:17:55;;;;;;;99.35;24.80;;;;;;;;;;5037936;28;20056;-91
2021/01/28 02:20:40;;;;;;;101.32;25.42;;;;;;;;;;5037539;28;20049;-91
2021/01/28 02:23:23;;;;;;;88.57;25.33;;;;;;;;;;5037390;28;20140;-91
2021/01/28 02:25:53;;;;;;;98.75;24.45;;;;;;;;;;5036978;28;20500;-90
2021/01/28 02:28:20;;;;;;;103.63;25.83;;;;;;;;;;5036431;28;20061;-90
2021/01/28 02:30:48;;;;;;;109.63;26.35;;;;;;;;;;5036551;28;20049;-91
2021/01/28 02:33:35;;;;;;;96.93;24.05;;;;;;;;;;5036633;28;20058;-91
2021/01/28 02:36:02;;;;;;;113.78;25.33;;;;;;;;;;5037603;28;20053;-91
2021/01/28 02:38:33;;;;;;;118.43;26.13;;;;;;;;;;5026686;28;20132;-90
2021/01/28 02:41:00;;;;;;;105.57;25.58;;;;;;;;;;5035555;28;20049;-90
2021/01/28 02:43:27;;;;;;;107.38;24.40;;;;;;;;;;5035962;28;20053;-89
2021/01/28 02:46:01;;;;;;;97.35;23.92;;;;;;;;;;5036652;28;20065;-89
2021/01/28 02:48:28;;;;;;;104.17;25.23;;;;;;;;;;5036299;28;20045;-89
2021/01/28 02:50:54;;;;;;;106.63;24.63;;;;;;;;;;5035617;28;20076;-90
2021/01/28 02:53:21;;;;;;;91.70;23.83;;;;;;;;;;5033842;28;20050;-90
2021/01/28 02:55:48;;;;;;;103.28;24.10;;;;;;;;;;5036761;28;20049;-90
2021/01/28 02:58:28;;;;;;;104.50;24.02;;;;;;;;;;5035738;28;20099;-90
2021/01/28 03:01:05;;;;;;;107.15;24.83;;;;;;;;;;5035141;28;20041;-90
2021/01/28 03:03:34;;;;;;;99.38;25.27;;;;;;;;;;5036711;28;20128;-92
2021/01/28 03:06:04;;;;;;;93.53;24.88;;;;;;;;;;5036235;28;20380;-89
2021/01/28 03:08:32;;;;;;;103.75;26.90;;;;;;;;;;5035666;28;20049;-90
2021/01/28 03:11:03;;;;;;;91.50;23.33;;;;;;;;;;5035414;28;20092;-89
2021/01/28 03:13:30;;;;;;;84.95;23.27;;;;;;;;;;5035061;28;20050;-90
2021/01/28 03:15:58;;;;;;;86.50;24.27;;;;;;;;;;5035088;28;20449;-89
2021/01/28 03:18:37;;;;;;;87.45;24.23;;;;;;;;;;5035193;28;20441;-91
2021/01/28 03:21:03;;;;;;;97.32;22.77;;;;;;;;;;5036121;28;20104;-90
2021/01/28 03:23:41;;;;;;;92.35;24.25;;;;;;;;;;5026833;28;20049;-91
2021/01/28 03:26:08;;;;;;;97.50;23.00;;;;;;;;;;5024415;28;20046;-91
2021/01/28 03:28:36;;;;;;;90.18;23.05;;;;;;;;;;5035728;28;20052;-91
2021/01/28 03:31:05;;;;;;;93.13;23.77;;;;;;;;;;5028225;28;20053;-90
2021/01/28 03:33:39;;;;;;;95.68;21.90;;;;;;;;;;5034575;28;20132;-91
2021/01/28 03:36:11;;;;;;;95.15;24.75;;;;;;;;;;5034748;28;20041;-92
2021/01/28 03:38:40;;;;;;;84.63;22.48;;;;;;;;;;5035351;28;20124;-90
2021/01/28 03:41:07;;;;;;;87.82;22.85;;;;;;;;;;5034487;28;20104;-91
2021/01/28 03:43:34;;;;;;;84.35;21.92;;;;;;;;;;5029978;28;20045;-90
2021/01/28 03:46:01;;;;;;;84.57;20.83;;;;;;;;;;5035109;28;20049;-91
2021/01/28 03:48:29;;;;;;;87.25;21.85;;;;;;;;;;5030483;28;20089;-91
2021/01/28 03:50:56;;;;;;;89.70;23.75;;;;;;;;;;5023814;28;20068;-90
2021/01/28 03:53:22;;;;;;;89.13;23.80;;;;;;;;;;5033381;28;20107;-90
2021/01/28 03:55:55;;;;;;;92.10;23.40;;;;;;;;;;5035156;28;20056;-92
2021/01/28 03:58:21;;;;;;;78.03;21.17;;;;;;;;;;5035513;28;20474;-93
2021/01/28 04:00:56;;;;;;;90.03;22.83;;;;;;;;;;5035198;28;20053;-92
2021/01/28 04:03:23;;;;;;;72.88;21.90;;;;;;;;;;5028604;28;20061;-91
2021/01/28 04:05:53;;;;;;;78.28;21.08;;;;;;;;;;5034798;28;20064;-91
2021/01/28 04:08:22;;;;;;;89.90;23.15;;;;;;;;;;5034713;28;20077;-91
2021/01/28 04:10:51;;;;;;;89.05;23.58;;;;;;;;;;5018608;28;20045;-92
2021/01/28 04:13:23;;;;;;;84.85;22.38;;;;;;;;;;5034385;28;20046;-91
2021/01/28 04:15:49;;;;;;;78.88;22.25;;;;;;;;;;5033649;28;20045;-92
2021/01/28 04:18:17;;;;;;;75.65;19.73;;;;;;;;;;5026197;28;20675;-91
2021/01/28 04:21:09;;;;;;;76.82;22.27;;;;;;;;;;5032855;28;20056;-91
2021/01/28 04:23:35;;;;;;;65.28;19.25;;;;;;;;;;5034059;28;20103;-91
2021/01/28 04:26:02;;;;;;;70.68;19.70;;;;;;;;;;5034543;28;20075;-91
2021/01/28 04:28:42;;;;;;;79.90;21.23;;;;;;;;;;5034408;28;20045;-92
2021/01/28 04:31:10;;;;;;;69.55;18.75;;;;;;;;;;5026411;28;20053;-91
2021/01/28 04:33:39;;;;;;;66.18;18.75;;;;;;;;;;5034276;28;20064;-91
2021/01/28 04:36:06;;;;;;;64.72;17.33;;;;;;;;;;5034296;28;20050;-92
2021/01/28 04:38:34;;;;;;;73.43;20.42;;;;;;;;;;5034569;28;20045;-92
2021/01/28 04:41:11;;;;;;;71.32;18.90;;;;;;;;;;5034796;28;20477;-92
2021/01/28 04:47:02;;;;;;;52.15;16.63;;;;;;;;;;5028210;28;20481;-91
2021/01/28 04:49:37;;;;;;;55.05;16.58;;;;;;;;;;5034373;28;20057;-92
2021/01/28 04:52:05;;;;;;;58.83;15.68;;;;;;;;;;5034676;28;20057;-92
2021/01/28 04:54:35;;;;;;;38.13;13.50;;;;;;;;;;5034509;28;20494;-92
2021/01/28 04:57:09;;;;;;;39.30;12.57;;;;;;;;;;5034736;28;20111;-92
2021/01/28 04:59:42;;;;;;;36.70;12.15;;;;;;;;;;5034036;28;20056;-92
2021/01/28 05:02:15;;;;;;;37.33;12.27;;;;;;;;;;5034704;28;20406;-92
2021/01/28 05:04:49;;;;;;;36.28;11.85;;;;;;;;;;5033573;28;20092;-90
2021/01/28 05:07:21;;;;;;;34.30;12.35;;;;;;;;;;5033759;28;20049;-91
2021/01/28 05:10:06;;;;;;;35.63;12.35;;;;;;;;;;5034845;28;20141;-92
2021/01/28 05:12:34;;;;;;;31.85;11.75;;;;;;;;;;5034665;28;20053;-92
2021/01/28 05:15:11;;;;;;;33.95;12.10;;;;;;;;;;5034653;28;20079;-91
2021/01/28 05:21:09;;;;;;;31.50;10.60;;;;;;;;;;5034422;28;20072;-91
2021/01/28 05:23:37;;;;;;;26.95;11.27;;;;;;;;;;5018210;28;20100;-91
2021/01/28 05:26:24;;;;;;;25.30;8.98;;;;;;;;;;5013909;28;20046;-91
2021/01/28 05:28:51;;;;;;;26.05;8.73;;;;;;;;;;5033455;28;20053;-91
2021/01/28 05:31:19;;;;;;;23.92;8.02;;;;;;;;;;5033142;28;20042;-90
2021/01/28 05:33:46;;;;;;;23.55;8.63;;;;;;;;;;5033341;28;20390;-91
2021/01/28 05:36:18;;;;;;;24.05;8.07;;;;;;;;;;5034142;28;20045;-92
2021/01/28 05:38:58;;;;;;;17.48;8.20;;;;;;;;;;5034515;28;20105;-92
2021/01/28 05:41:26;;;;;;;20.20;7.88;;;;;;;;;;5033362;28;20042;-91
2021/01/28 05:43:54;;;;;;;21.73;8.65;;;;;;;;;;5033985;28;20503;-92
2021/01/28 05:46:27;;;;;;;32.63;13.93;;;;;;;;;;5034629;28;20061;-92
2021/01/28 05:49:12;;;;;;;29.58;16.05;;;;;;;;;;5029638;28;20076;-92
2021/01/28 05:51:41;;;;;;;27.23;12.93;;;;;;;;;;5049132;28;20117;-91
2021/01/28 05:54:29;;;;;;;24.65;11.23;;;;;;;;;;5053707;28;20065;-93
2021/01/28 05:57:07;;;;;;;19.45;9.15;;;;;;;;;;5052918;28;20059;-90
2021/01/28 05:59:35;;;;;;;19.23;8.07;;;;;;;;;;5056846;28;20540;-91
2021/01/28 06:05:28;;;;;;;15.45;7.20;;;;;;;;;;5039361;28;20048;-91
2021/01/28 06:07:54;;;;;;;18.83;6.60;;;;;;;;;;5034998;28;20105;-91
2021/01/28 06:10:40;;;;;;;26.92;7.00;;;;;;;;;;5034108;28;20084;-92
2021/01/28 06:13:07;;;;;;;;;;;;;;;;;;5015499;28;20054;-92
2021/01/28 06:15:37;;;;;;;12.88;5.65;;;;;;;;;;5014929;28;19983;-92
2021/01/28 06:18:15;;;;;;;15.98;6.25;;;;;;;;;;5017849;28;20057;-92
2021/01/28 06:21:01;;;;;;;14.95;5.43;;;;;;;;;;5027558;28;20500;-91
2021/01/28 06:23:46;;;;;;;16.70;5.15;;;;;;;;;;5036556;28;20045;-91
2021/01/28 06:26:14;;;;;;;;;;;;;;;;;;5037500;28;20075;-91
2021/01/28 06:28:59;;;;;;;17.40;8.10;;;;;;;;;;5024715;28;19921;-91
2021/01/28 06:31:46;;;;;;;41.60;16.83;;;;;;;;;;5037774;28;20482;-93
2021/01/28 06:34:16;;;;;;;54.72;27.95;;;;;;;;;;5016788;28;20514;-91
2021/01/28 06:37:14;;;;;;;27.23;15.30;;;;;;;;;;5036020;28;20041;-90
2021/01/28 06:39:46;;;;;;;18.65;8.90;;;;;;;;;;5036797;28;20076;-91
2021/01/28 06:42:34;;;;;;;22.52;10.15;;;;;;;;;;5035378;28;20088;-88
2021/01/28 06:45:11;;;;;;;19.23;9.68;;;;;;;;;;5028679;28;20045;-91
2021/01/28 06:47:41;;;;;;;23.40;11.80;;;;;;;;;;5036094;28;20045;-90
2021/01/28 06:50:44;;;;;;;20.42;8.55;;;;;;;;;;5030376;28;20041;-91
2021/01/28 06:53:11;;;;;;;16.13;7.68;;;;;;;;;;4966217;28;20050;-90
2021/01/28 06:56:00;;;;;;;13.25;7.07;;;;;;;;;;5023565;28;20096;-91
2021/01/28 06:58:52;;;;;;;16.95;8.80;;;;;;;;;;5031737;28;20053;-90
2021/01/28 07:01:37;;;;;;;16.02;6.43;;;;;;;;;;5030615;28;20462;-92
2021/01/28 07:04:18;;;;;;;13.75;6.60;;;;;;;;;;5038754;28;20079;-91
2021/01/28 07:07:00;;;;;;;14.57;6.03;;;;;;;;;;5037548;28;20065;-91
2021/01/28 07:09:53;;;;;;;12.88;6.18;;;;;;;;;;5035483;28;20080;-91
2021/01/28 07:12:24;;;;;;;14.73;6.47;;;;;;;;;;5030923;28;20057;-91
2021/01/28 07:14:51;;;;;;;16.92;6.38;;;;;;;;;;5035864;28;20045;-91
2021/01/28 07:17:20;;;;;;;16.10;6.28;;;;;;;;;;5035068;28;20049;-91
2021/01/28 07:19:52;;;;;;;12.93;6.55;;;;;;;;;;5035738;28;20045;-91
2021/01/28 07:22:26;;;;;;;14.15;6.80;;;;;;;;;;5036044;28;20132;-92
2021/01/28 07:24:53;;;;;;;19.38;7.57;;;;;;;;;;5035868;28;20058;-92
2021/01/28 07:27:40;;;;;;;14.18;6.85;;;;;;;;;;5037798;28;20049;-92
2021/01/28 07:30:07;;;;;;;14.30;6.80;;;;;;;;;;5036163;28;20060;-92
2021/01/28 07:32:37;;;;;;;19.75;7.30;;;;;;;;;;5035478;28;20049;-92
2021/01/28 07:35:25;;;;;;;14.32;6.85;;;;;;;;;;5035371;28;20140;-92
2021/01/28 07:38:28;;;;;;;12.80;6.90;;;;;;;;;;5035111;28;20049;-92
2021/01/28 07:41:01;;;;;;;18.45;7.38;;;;;;;;;;5019964;28;20045;-91
2021/01/28 07:47:24;;;;;;;18.02;8.15;;;;;;;;;;5036956;28;20433;-92
2021/01/28 07:50:09;;;;;;;17.90;7.43;;;;;;;;;;5035689;28;20513;-93
2021/01/28 07:52:40;;;;;;;13.52;6.07;;;;;;;;;;5035764;28;20053;-93
2021/01/28 07:55:34;;;;;;;17.05;6.78;;;;;;;;;;5035522;28;20069;-92
2021/01/28 07:58:02;;;;;;;15.38;6.47;;;;;;;;;;5036521;28;20115;-92
2021/01/28 08:00:35;;;;;;;19.98;7.10;;;;;;;;;;5035167;28;20111;-92
2021/01/28 08:03:13;;;;;;;15.95;7.50;;;;;;;;;;5027868;28;20049;-92
2021/01/28 08:05:40;;;;;;;17.40;6.93;;;;;;;;;;5035330;28;20061;-93
2021/01/28 08:08:15;;;;;;;18.52;6.55;;;;;;;;;;5034866;28;20180;-91
2021/01/28 08:10:51;;;;;;;14.52;7.00;;;;;;;;;;5035337;28;20053;-92
2021/01/28 08:13:25;;;;;;;17.20;6.70;;;;;;;;;;5034681;28;20080;-91
2021/01/28 08:15:53;;;;;;;17.45;6.20;;;;;;;;;;5035654;28;20038;-92
2021/01/28 08:18:28;;;;;;;21.92;6.43;;;;;;;;;;5034697;28;20049;-92
2021/01/28 08:21:14;;;;;;;11.05;6.10;;;;;;;;;;5034753;28;20065;-91
2021/01/28 08:23:42;;;;;;;15.57;6.65;;;;;;;;;;5034804;28;20497;-92
2021/01/28 08:26:29;;;;;;;18.00;6.78;;;;;;;;;;5034664;28;20053;-92
2021/01/28 08:29:23;;;;;;;14.73;6.25;;;;;;;;;;5034915;28;20073;-92
2021/01/28 08:31:52;;;;;;;16.58;5.82;;;;;;;;;;5033641;28;20379;-92
2021/01/28 08:34:27;;;;;;;14.35;6.35;;;;;;;;;;5034991;28;20452;-93
2021/01/28 08:37:02;;;;;;;14.77;6.32;;;;;;;;;;5034209;28;20075;-92
2021/01/28 08:39:31;;;;;;;13.88;6.10;;;;;;;;;;5034176;28;20049;-92
2021/01/28 08:42:09;;;;;;;15.00;6.47;;;;;;;;;;5034214;28;20131;-92
2021/01/28 08:44:46;;;;;;;13.75;6.43;;;;;;;;;;5034596;28;20080;-92
2021/01/28 08:47:14;;;;;;;17.95;6.88;;;;;;;;;;5034458;28;20049;-92
2021/01/28 08:49:42;;;;;;;14.40;6.68;;;;;;;;;;5034446;28;20113;-92
2021/01/28 08:55:23;;;;;;;11.30;6.07;;;;;;;;;;5015820;28;20049;-92
2021/01/28 08:57:51;;;;;;;11.57;5.78;;;;;;;;;;5017441;28;20442;-92
2021/01/28 09:00:23;;;;;;;12.15;5.65;;;;;;;;;;5034099;28;20053;-92
2021/01/28 09:02:52;;;;;;;12.00;6.35;;;;;;;;;;5035127;28;20065;-92
2021/01/28 09:05:30;;;;;;;14.07;4.80;;;;;;;;;;5034002;28;20045;-92
2021/01/28 09:07:58;;;;;;;10.98;4.60;;;;;;;;;;5018014;28;20041;-92
2021/01/28 09:10:37;;;;;;;18.40;4.88;;;;;;;;;;5033743;28;20061;-92
2021/01/28 09:13:14;;;;;;;12.88;3.97;;;;;;;;;;5014397;28;20052;-92
2021/01/28 09:15:41;;;;;;;14.00;3.95;;;;;;;;;;5032730;28;20053;-91
2021/01/28 09:18:15;;;;;;;15.40;4.80;;;;;;;;;;5033838;28;20096;-91
2021/01/28 09:20:42;;;;;;;8.20;3.28;;;;;;;;;;5034515;28;20052;-91
2021/01/28 09:23:11;;;;;;;9.20;3.85;;;;;;;;;;5033611;28;20661;-91
2021/01/28 09:25:47;;;;;;;11.38;3.00;;;;;;;;;;5035409;28;20071;-92
2021/01/28 09:28:23;;;;;;;5.88;2.28;;;;;;;;;;5035070;28;20092;-91
2021/01/28 09:31:19;;;;;;;5.78;2.22;;;;;;;;;;5034033;28;20076;-91
2021/01/28 09:33:46;;;;;;;6.72;2.28;;;;;;;;;;5032782;28;20060;-92
2021/01/28 09:36:19;;;;;;;6.63;2.13;;;;;;;;;;5033445;28;20049;-91
2021/01/28 09:38:58;;;;;;;4.18;1.70;;;;;;;;;;5033493;28;20037;-92
2021/01/28 09:41:53;;;;;;;4.68;2.25;;;;;;;;;;5033335;28;20045;-92
2021/01/28 09:44:55;;;;;;;6.20;2.25;;;;;;;;;;5013989;28;20054;-92
2021/01/28 09:47:30;;;;;;;8.10;2.40;;;;;;;;;;5021303;28;20045;-92
2021/01/28 09:49:57;;;;;;;;;;;;;;;;;;5034216;28;20441;-92
2021/01/28 09:52:27;;;;;;;7.20;2.33;;;;;;;;;;5037766;28;19928;-91
2021/01/28 09:55:15;;;;;;;6.18;2.40;;;;;;;;;;5037317;28;20053;-92
2021/01/28 09:57:42;;;;;;;5.88;1.90;;;;;;;;;;5038204;28;20056;-91
2021/01/28 10:00:12;;;;;;;13.45;1.73;;;;;;;;;;5038176;28;20405;-92
2021/01/28 10:02:42;;;;;;;4.47;1.80;;;;;;;;;;5032737;28;20077;-91
2021/01/28 10:05:10;;;;;;;12.85;1.67;;;;;;;;;;5039130;28;20049;-92
2021/01/28 10:07:40;;;;;;;6.47;1.92;;;;;;;;;;5040385;28;20046;-91
2021/01/28 10:10:19;;;;;;;5.60;1.58;;;;;;;;;;5039075;28;20111;-92
2021/01/28 10:12:52;;;;;;;3.35;1.50;;;;;;;;;;5037995;28;20522;-92
2021/01/28 10:15:57;;;;;;;9.50;1.33;;;;;;;;;;5038582;28;20053;-92
2021/01/28 10:18:24;;;;;;;8.45;1.50;;;;;;;;;;5017720;28;20045;-92
2021/01/28 10:24:02;;;;;;;15.65;1.77;;;;;;;;;;5018810;28;20050;-92
2021/01/28 10:26:29;;;;;;;15.07;1.77;;;;;;;;;;5017730;28;20050;-92
2021/01/28 10:28:55;;;;;;;5.13;2.20;;;;;;;;;;5036909;28;20053;-92
2021/01/28 10:31:23;;;;;;;5.25;2.03;;;;;;;;;;5036997;28;20077;-92
2021/01/28 10:33:51;;;;;;;7.80;2.83;;;;;;;;;;5036916;28;20092;-90
2021/01/28 10:36:18;;;;;;;6.93;2.50;;;;;;;;;;5036576;28;20077;-91
2021/01/28 10:38:44;;;;;;;9.43;2.40;;;;;;;;;;5036608;28;20120;-91
2021/01/28 10:41:11;;;;;;;9.30;1.92;;;;;;;;;;5036265;28;20444;-88
2021/01/28 10:43:38;;;;;;;12.02;1.70;;;;;;;;;;5036783;28;20050;-91
2021/01/28 10:46:05;;;;;;;8.15;1.70;;;;;;;;;;5037041;28;20056;-93
2021/01/28 10:48:32;;;;;;;3.03;1.15;;;;;;;;;;5037176;28;20117;-91
2021/01/28 10:51:01;;;;;;;7.43;1.00;;;;;;;;;;5036541;28;20045;-91
2021/01/28 10:54:00;;;;;;;7.57;1.25;;;;;;;;;;5036796;28;20053;-92
2021/01/28 10:56:27;;;;;;;7.82;1.08;;;;;;;;;;5036780;28;20141;-91
2021/01/28 10:58:54;;;;;;;4.45;1.55;;;;;;;;;;5028392;28;20128;-92
2021/01/28 11:01:21;;;;;;;5.32;2.10;;;;;;;;;;5035571;28;20049;-92
2021/01/28 11:03:52;;;;;;;2.72;1.10;;;;;;;;;;5036048;28;20491;-91
2021/01/28 11:06:19;;;;;;;5.22;1.80;;;;;;;;;;5036823;28;20072;-92
2021/01/28 11:08:46;;;;;;;4.88;1.20;;;;;;;;;;5039553;28;20072;-92
2021/01/28 11:11:14;;;;;;;4.97;1.17;;;;;;;;;;5044277;28;20489;-92
2021/01/28 11:13:41;;;;;;;4.97;1.65;;;;;;;;;;5044957;28;20468;-90
2021/01/28 11:16:08;;;;;;;13.55;1.58;;;;;;;;;;5044040;28;20061;-92
2021/01/28 11:18:35;;;;;;;4.05;1.00;;;;;;;;;;5035329;28;20056;-92
2021/01/28 11:21:01;;;;;;;3.08;1.27;;;;;;;;;;5040469;28;20049;-92
2021/01/28 11:23:28;;;;;;;9.75;1.73;;;;;;;;;;5048012;28;20053;-91
2021/01/28 11:25:55;;;;;;;5.63;1.70;;;;;;;;;;5055296;28;20053;-90
2021/01/28 11:28:30;;;;;;;10.32;1.33;;;;;;;;;;5056135;28;20095;-92
2021/01/28 11:30:56;;;;;;;4.47;1.30;;;;;;;;;;5047730;28;20116;-92
2021/01/28 11:33:23;;;;;;;6.80;1.23;;;;;;;;;;5038321;28;20054;-92
2021/01/28 11:35:50;;;;;;;9.32;1.92;;;;;;;;;;5037635;28;20049;-93
2021/01/28 11:38:17;;;;;;;8.02;1.20;;;;;;;;;;5037287;28;20049;-92
2021/01/28 11:40:57;;;;;;;4.05;1.10;;;;;;;;;;5036024;28;20068;-92
2021/01/28 11:43:26;;;;;;;6.22;1.35;;;;;;;;;;5036490;28;20100;-92
2021/01/28 11:46:02;;;;;;;13.68;1.50;;;;;;;;;;5036805;28;20045;-92
2021/01/28 11:48:30;;;;;;;4.72;1.10;;;;;;;;;;5035706;28;20379;-92
2021/01/28 11:54:37;;;;;;;7.97;1.00;;;;;;;;;;5036675;28;20473;-92
2021/01/28 11:57:06;;;;;;;6.10;1.13;;;;;;;;;;5035820;28;20113;-93
2021/01/28 11:59:33;;;;;;;7.80;1.13;;;;;;;;;;5035560;28;20077;-93
2021/01/28 12:02:07;;;;;;;12.55;1.30;;;;;;;;;;5036020;28;20053;-90
2021/01/28 12:04:34;;;;;;;14.63;1.27;;;;;;;;;;5036397;28;20050;-90
2021/01/28 12:07:00;;;;;;;7.45;1.45;;;;;;;;;;5035976;28;20446;-91
2021/01/28 12:09:27;;;;;;;7.38;1.02;;;;;;;;;;5045083;28;20084;-91
2021/01/28 12:11:54;;;;;;;11.82;1.10;;;;;;;;;;5035724;28;20504;-91
2021/01/28 12:14:21;;;;;;;2.45;1.02;;;;;;;;;;5034718;28;20096;-91
2021/01/28 12:16:56;;;;;;;3.40;1.02;;;;;;;;;;5036209;28;20046;-91
2021/01/28 12:19:28;;;;;;;5.07;1.05;;;;;;;;;;5035992;28;20050;-91
2021/01/28 12:21:54;;;;;;;5.00;1.50;;;;;;;;;;5035660;28;20042;-91
2021/01/28 12:24:22;;;;;;;6.30;1.40;;;;;;;;;;5035712;28;20132;-91
2021/01/28 12:27:01;;;;;;;3.63;1.45;;;;;;;;;;5086345;28;20352;-77
2021/01/28 12:29:31;;;;;;;6.65;0.95;;;;;;;;;;5084321;28;20125;-77
2021/01/28 12:32:01;;;;;;;8.77;1.38;;;;;;;;;;5080267;28;20044;-77
2021/01/28 12:34:30;;;;;;;19.20;2.60;;;;;;;;;;5086548;28;20048;-77
2021/01/28 12:36:57;;;;;;;4.53;1.30;;;;;;;;;;5094062;28;20060;-77
2021/01/28 12:39:26;;;;;;;4.95;0.85;;;;;;;;;;5084975;28;20078;-77
2021/01/28 12:41:52;;;;;;;4.90;1.48;;;;;;;;;;5086018;28;20568;-77
2021/01/28 12:44:19;;;;;;;14.30;2.00;;;;;;;;;;5090941;28;20056;-77
2021/01/28 12:46:46;;;;;;;8.02;2.03;;;;;;;;;;5083854;28;20166;-77
2021/01/28 12:49:13;;;;;;;5.07;1.33;;;;;;;;;;5084970;28;20050;-82
2021/01/28 12:51:40;;;;;;;5.68;1.40;;;;;;;;;;5086089;28;20085;-81
2021/01/28 12:54:07;;;;;;;5.80;1.33;;;;;;;;;;5087986;28;20155;-82
2021/01/28 12:56:36;;;;;;;8.48;1.27;;;;;;;;;;5087664;28;20101;-81
2021/01/28 12:59:03;;;;;;;5.40;1.10;;;;;;;;;;5085955;28;20088;-78
2021/01/28 13:01:30;;;;;;;3.40;1.20;;;;;;;;;;5082794;28;20091;-78
2021/01/28 13:03:57;;;;;;;12.70;1.80;;;;;;;;;;5092004;28;20083;-79
2021/01/28 13:06:24;;;;;;;6.93;1.58;;;;;;;;;;5092399;28;20051;-79
2021/01/28 13:08:50;;;;;;;14.80;2.05;;;;;;;;;;5084466;28;20067;-78
2021/01/28 13:11:17;;;;;;;5.93;1.30;;;;;;;;;;5086147;28;20129;-78
2021/01/28 13:13:44;;;;;;;4.38;1.25;;;;;;;;;;5085930;28;20139;-78
2021/01/28 13:16:11;;;;;;;11.68;1.20;;;;;;;;;;5085929;28;20155;-78
2021/01/28 13:18:38;;;;;;;6.82;1.25;;;;;;;;;;5086778;28;20461;-80
2021/01/28 13:21:07;;;;;;;6.13;1.73;;;;;;;;;;5087539;28;20117;-82
2021/01/28 13:23:34;;;;;;;6.15;1.55;;;;;;;;;;5088451;28;20084;-81
2021/01/28 13:26:01;;;;;;;7.10;1.80;;;;;;;;;;5085913;28;20580;-80
2021/01/28 13:28:27;;;;;;;5.75;1.30;;;;;;;;;;5088078;28;20098;-80
2021/01/28 13:30:56;;;;;;;9.55;2.08;;;;;;;;;;5093103;28;20548;-80
2021/01/28 13:33:29;;;;;;;9.57;1.40;;;;;;;;;;5089103;28;20099;-81
2021/01/28 13:36:00;;;;;;;6.45;1.17;;;;;;;;;;5084333;28;20056;-79
2021/01/28 13:38:26;;;;;;;11.18;2.22;;;;;;;;;;5075109;28;20135;-80
2021/01/28 13:40:55;;;;;;;21.15;3.10;;;;;;;;;;5074035;28;20076;-79
2021/01/28 13:43:22;;;;;;;7.28;1.38;;;;;;;;;;5080311;28;20486;-78
2021/01/28 13:45:49;;;;;;;11.48;1.25;;;;;;;;;;5072138;28;20127;-78
2021/01/28 13:48:19;;;;;;;2.28;1.00;;;;;;;;;;5072829;28;20128;-78
2021/01/28 13:50:50;;;;;;;7.50;1.45;;;;;;;;;;5072225;28;20052;-77
2021/01/28 13:53:17;;;;;;;2.85;1.30;;;;;;;;;;5080901;28;20049;-83
2021/01/28 13:55:44;;;;;;;7.13;0.98;;;;;;;;;;5072666;28;20084;-82
2021/01/28 13:58:11;;;;;;;7.35;1.00;;;;;;;;;;5076189;28;20481;-81
2021/01/28 14:00:38;;;;;;;5.47;1.10;;;;;;;;;;5075084;28;20055;-81
2021/01/28 14:03:05;;;;;;;3.13;1.00;;;;;;;;;;5072604;28;20052;-81
2021/01/28 14:05:32;;;;;;;3.03;1.08;;;;;;;;;;5076053;28;20048;-80
2021/01/28 14:08:00;;;;;;;6.93;1.42;;;;;;;;;;5071113;28;20052;-80
2021/01/28 14:10:28;;;;;;;19.58;3.33;;;;;;;;;;5072036;28;20460;-81
2021/01/28 14:12:55;;;;;;;13.07;1.63;;;;;;;;;;5082823;28;20139;-83
2021/01/28 14:15:28;;;;;;;15.50;1.30;;;;;;;;;;5077317;28;20101;-84
2021/01/28 14:17:55;;;;;;;36.47;4.32;;;;;;;;;;5076377;28;20127;-85
2021/01/28 14:20:23;;;;;;;7.95;1.33;;;;;;;;;;5072816;28;20049;-88
2021/01/28 14:22:51;;;;;;;15.98;2.08;;;;;;;;;;5072523;28;20048;-84
2021/01/28 14:25:19;;;;;;;10.05;3.30;;;;;;;;;;5080528;28;20408;-86
2021/01/28 14:27:46;;;;;;;28.80;5.00;;;;;;;;;;5074053;28;20102;-85
2021/01/28 14:30:14;;;;;;;26.20;5.57;;;;;;;;;;5072505;28;20044;-87
2021/01/28 14:32:41;;;;;;;5.88;1.77;;;;;;;;;;5070334;28;20051;-85
2021/01/28 14:35:08;;;;;;;9.45;2.45;;;;;;;;;;5072064;28;20135;-87
2021/01/28 14:37:35;;;;;;;6.38;1.92;;;;;;;;;;5072439;28;20123;-85
2021/01/28 14:40:01;;;;;;;7.82;1.77;;;;;;;;;;5072157;28;20137;-87
2021/01/28 14:42:28;;;;;;;15.10;2.65;;;;;;;;;;5072338;28;20139;-88
2021/01/28 14:44:54;;;;;;;13.10;1.67;;;;;;;;;;5070017;28;20106;-87
2021/01/28 14:47:21;;;;;;;33.20;13.23;;;;;;;;;;5072285;28;20083;-88
2021/01/28 14:49:48;;;;;;;11.10;3.70;;;;;;;;;;5071149;28;20079;-89
2021/01/28 14:52:16;;;;;;;16.95;5.80;;;;;;;;;;5073151;28;20055;-89
2021/01/28 14:54:43;;;;;;;46.72;13.15;;;;;;;;;;5073594;28;20101;-90
2021/01/28 14:57:10;;;;;;;26.85;5.15;;;;;;;;;;5072651;28;20131;-90
2021/01/28 14:59:36;;;;;;;32.00;8.32;;;;;;;;;;5073159;28;20056;-88
2021/01/28 15:02:14;;;;;;;22.00;6.32;;;;;;;;;;5073212;28;20056;-88
2021/01/28 15:04:42;;;;;;;18.55;5.65;;;;;;;;;;5079459;28;20048;-89
2021/01/28 15:07:08;;;;;;;23.73;5.78;;;;;;;;;;5071700;28;20156;-80
2021/01/28 15:09:37;;;;;;;17.25;5.15;;;;;;;;;;5076299;28;20053;-79
2021/01/28 15:12:04;;;;;;;20.17;5.53;;;;;;;;;;5080856;28;20472;-80
2021/01/28 15:14:30;;;;;;;24.55;5.88;;;;;;;;;;5074887;28;20044;-79
2021/01/28 15:16:57;;;;;;;10.30;3.08;;;;;;;;;;5070789;28;20048;-79
2021/01/28 15:19:25;;;;;;;20.08;3.45;;;;;;;;;;5070597;28;20052;-78
2021/01/28 15:21:52;;;;;;;10.75;1.92;;;;;;;;;;5069606;28;20097;-79
2021/01/28 15:24:22;;;;;;;12.82;2.38;;;;;;;;;;5071515;28;20135;-80